Time;durP1;ratioP1;P1;durP2;ratioP2;P2;SDS_P1;SDS_P2;PMS_P1;PMS_P2;Temp;Humidity;BMP_temperature;BMP_pressure;BME280_temperature;BME280_humidity;BME280_pressure;Samples;Min_cycle;Max_cycle;Signal;HPM_P1;HPM_P2
2020/12/21 00:00:39;;;;;;;62.10;33.57;;;;;;;12.94;53.54;99885.57;2239292;80;21484;-77
2020/12/21 00:03:41;;;;;;;56.73;31.53;;;;;;;11.77;47.41;99889.17;2239089;80;21122;-77
2020/12/21 00:06:43;;;;;;;62.93;30.47;;;;;;;8.93;48.29;99892.84;2239439;80;21487;-78
2020/12/21 00:09:44;;;;;;;69.73;31.27;;;;;;;6.85;51.00;99901.02;2239572;80;21142;-80
2020/12/21 00:12:48;;;;;;;96.60;34.30;;;;;;;5.53;53.84;99909.98;2240185;80;21071;-77
2020/12/21 00:15:48;;;;;;;63.07;32.93;;;;;;;4.54;56.39;99913.09;2239128;79;21131;-77
2020/12/21 00:18:49;;;;;;;72.47;29.33;;;;;;;3.72;58.19;99924.97;2239231;80;21215;-76
2020/12/21 00:21:50;;;;;;;70.00;31.27;;;;;;;3.17;60.65;99933.41;2239249;80;21229;-77
2020/12/21 00:24:51;;;;;;;87.70;31.73;;;;;;;2.76;62.09;99922.84;2239261;80;21233;-76
2020/12/21 00:27:52;;;;;;;72.27;32.93;;;;;;;2.45;63.14;99932.97;2239199;80;21257;-77
2020/12/21 00:30:56;;;;;;;65.20;30.73;;;;;;;2.19;63.83;99944.64;2239372;80;21306;-77
2020/12/21 00:33:57;;;;;;;63.43;31.60;;;;;;;2.04;64.42;99939.83;2239586;80;21530;-78
2020/12/21 00:37:01;;;;;;;68.13;30.73;;;;;;;1.96;65.17;99946.19;2239450;80;21641;-78
2020/12/21 00:40:02;;;;;;;55.13;29.40;;;;;;;1.85;65.67;99949.37;2239642;80;21233;-78
2020/12/21 00:43:06;;;;;;;54.90;26.97;;;;;;;1.72;66.20;99957.06;2239505;80;21107;-79
2020/12/21 00:46:07;;;;;;;40.92;18.75;;;;;;;1.59;66.65;99953.70;2240240;80;21400;-78
2020/12/21 00:49:11;;;;;;;65.27;25.53;;;;;;;1.45;67.92;99963.89;2240167;80;21158;-78
2020/12/21 00:52:12;;;;;;;51.83;27.10;;;;;;;1.30;67.60;99962.89;2240059;80;21107;-80
2020/12/21 00:55:16;;;;;;;102.60;53.77;;;;;;;1.21;69.00;99961.49;2240381;80;21384;-79
2020/12/21 00:58:17;;;;;;;59.57;29.57;;;;;;;5.34;79.86;99948.73;2239985;79;21248;-79
2020/12/21 01:01:18;;;;;;;64.57;27.27;;;;;;;6.19;63.05;99951.64;2240262;80;21111;-79
2020/12/21 01:04:21;;;;;;;57.80;27.63;;;;;;;4.90;61.12;99956.39;2240123;80;21229;-78
2020/12/21 01:07:22;;;;;;;68.90;29.73;;;;;;;3.89;61.69;99963.36;2240206;80;21150;-78
2020/12/21 01:10:23;;;;;;;67.70;28.53;;;;;;;3.26;62.75;99952.41;2240443;80;21122;-80
2020/12/21 01:13:26;;;;;;;54.97;27.13;;;;;;;2.81;63.68;99949.80;2240155;80;21388;-78
2020/12/21 01:16:27;;;;;;;52.30;26.97;;;;;;;2.49;64.63;99944.35;2240336;80;21345;-78
2020/12/21 01:19:28;;;;;;;97.37;48.90;;;;;;;2.22;65.66;99957.72;2240336;80;21118;-79
2020/12/21 01:22:29;;;;;;;79.40;39.10;;;;;;;3.20;78.07;99953.83;2240273;80;21079;-79
2020/12/21 01:25:31;;;;;;;91.27;48.03;;;;;;;7.70;74.31;99932.72;2235667;80;21138;-79
2020/12/21 01:28:32;;;;;;;90.60;44.37;;;;;;;10.86;65.79;99928.56;2215311;80;21157;-79
2020/12/21 01:31:39;;;;;;;75.20;43.97;;;;;;;12.80;60.02;99921.11;2220542;79;21243;-79
2020/12/21 01:34:40;;;;;;;63.93;37.00;;;;;;;14.18;55.43;99915.27;2220729;79;21115;-80
2020/12/21 01:37:41;;;;;;;63.33;31.70;;;;;;;14.97;51.68;99918.97;2220573;79;21110;-77
2020/12/21 01:40:42;;;;;;;49.37;28.93;;;;;;;15.19;45.97;99924.03;2220597;79;21074;-79
2020/12/21 01:43:43;;;;;;;61.60;29.30;;;;;;;12.00;43.51;99924.14;2220718;79;21110;-78
2020/12/21 01:46:44;;;;;;;86.23;45.43;;;;;;;9.12;46.27;99936.46;2220413;79;21228;-79
2020/12/21 01:49:45;;;;;;;77.93;42.93;;;;;;;8.05;57.78;99937.64;2220450;80;21110;-78
2020/12/21 01:52:46;;;;;;;69.53;30.90;;;;;;;10.71;52.24;99925.52;2220618;79;21110;-78
2020/12/21 01:55:47;;;;;;;67.27;30.40;;;;;;;9.03;48.41;99936.14;2220703;80;21075;-78
2020/12/21 01:58:49;;;;;;;59.80;30.10;;;;;;;6.97;50.51;99937.03;2220574;79;21129;-79
2020/12/21 02:01:52;;;;;;;68.37;28.07;;;;;;;5.30;53.12;99940.33;2220871;79;21078;-78
2020/12/21 02:04:53;;;;;;;106.30;33.10;;;;;;;4.31;55.50;99947.63;2221550;80;21075;-78
2020/12/21 02:07:54;;;;;;;64.57;29.30;;;;;;;3.57;58.78;99941.78;2220714;79;21310;-78
2020/12/21 02:10:55;;;;;;;46.23;25.47;;;;;;;2.89;59.94;99946.38;2220669;79;21233;-78
2020/12/21 02:13:57;;;;;;;47.83;26.47;;;;;;;2.44;61.50;99938.03;2220394;79;21233;-78
2020/12/21 02:16:58;;;;;;;50.57;26.70;;;;;;;2.14;63.00;99928.02;2221107;79;21119;-79
2020/12/21 02:19:59;;;;;;;67.10;28.53;;;;;;;1.89;63.83;99941.94;2220727;80;21106;-80
2020/12/21 02:23:00;;;;;;;64.63;27.70;;;;;;;1.72;64.17;99933.50;2221091;79;21110;-79
2020/12/21 02:26:01;;;;;;;47.93;25.80;;;;;;;1.62;65.47;99947.86;2226301;79;21165;-80
2020/12/21 02:29:02;;;;;;;50.93;24.90;;;;;;;1.50;65.65;99945.78;2240018;79;21260;-79
2020/12/21 02:32:05;;;;;;;48.37;25.33;;;;;;;1.41;66.65;99943.91;2239429;80;21134;-80
2020/12/21 02:35:06;;;;;;;45.13;25.70;;;;;;;1.32;66.79;99943.30;2238873;80;21554;-78
2020/12/21 02:38:07;;;;;;;48.77;27.90;;;;;;;1.28;67.30;99946.96;2239201;80;21122;-79
2020/12/21 02:41:11;;;;;;;51.47;27.40;;;;;;;1.27;67.29;99950.72;2239240;80;21138;-78
2020/12/21 02:44:12;;;;;;;51.93;27.30;;;;;;;1.26;67.83;99951.11;2239458;80;21126;-78
2020/12/21 02:47:13;;;;;;;50.60;27.13;;;;;;;1.22;67.87;99941.41;2239168;80;21188;-79
2020/12/21 02:50:14;;;;;;;60.83;29.10;;;;;;;1.21;68.08;99951.20;2239254;80;21115;-79
2020/12/21 02:53:15;;;;;;;54.67;28.03;;;;;;;1.24;68.25;99949.23;2239761;80;21376;-78
2020/12/21 02:56:16;;;;;;;52.50;27.97;;;;;;;1.25;68.40;99948.05;2239144;80;21063;-78
2020/12/21 02:59:17;;;;;;;55.87;27.80;;;;;;;1.26;68.67;99945.97;2239063;80;21364;-78
2020/12/21 03:02:23;;;;;;;61.07;30.13;;;;;;;1.25;69.02;99945.47;2239382;80;21507;-78
2020/12/21 03:05:24;;;;;;;75.67;28.97;;;;;;;1.19;69.08;99936.07;2239496;80;21071;-77
2020/12/21 03:08:26;;;;;;;61.50;28.90;;;;;;;1.19;69.08;99936.07;2240039;80;21936;-79
2020/12/21 03:11:29;;;;;;;55.57;28.33;;;;;;;1.19;69.43;99930.03;2239939;80;21184;-79
2020/12/21 03:14:30;;;;;;;56.00;29.23;;;;;;;1.18;69.56;99931.72;2239569;80;21229;-79
2020/12/21 03:17:31;;;;;;;58.73;31.20;;;;;;;1.19;69.60;99932.61;2238724;80;21122;-79
2020/12/21 03:20:32;;;;;;;56.60;28.87;;;;;;;1.20;69.71;99924.99;2238683;80;21396;-80
2020/12/21 03:23:33;;;;;;;68.10;30.70;;;;;;;1.20;69.90;99925.39;2238867;80;21075;-79
2020/12/21 03:26:35;;;;;;;61.70;30.97;;;;;;;1.19;69.92;99923.61;2236426;80;21243;-79
2020/12/21 03:29:36;;;;;;;61.93;31.70;;;;;;;1.19;70.34;99924.50;2232929;80;21150;-79
2020/12/21 03:32:37;;;;;;;56.40;28.90;;;;;;;1.21;70.05;99916.48;2232816;80;21209;-79
2020/12/21 03:35:38;;;;;;;60.93;30.30;;;;;;;1.23;70.42;99921.73;2232559;80;21353;-78
2020/12/21 03:38:40;;;;;;;58.27;28.40;;;;;;;1.23;70.40;99917.87;2232375;80;21094;-79
2020/12/21 03:41:41;;;;;;;64.70;31.73;;;;;;;1.20;70.35;99918.56;2232813;80;21067;-78
2020/12/21 03:44:42;;;;;;;57.73;31.40;;;;;;;1.23;70.56;99916.19;2232657;80;21106;-80
2020/12/21 03:47:43;;;;;;;60.07;30.43;;;;;;;1.25;70.93;99918.86;2231872;80;21262;-78
2020/12/21 03:50:44;;;;;;;54.00;29.23;;;;;;;1.20;70.67;99918.95;2232879;80;21088;-78
2020/12/21 03:53:45;;;;;;;59.73;30.97;;;;;;;1.21;70.74;99922.91;2232741;80;21104;-79
2020/12/21 03:56:46;;;;;;;65.67;31.60;;;;;;;1.19;70.69;99910.34;2232771;80;21651;-79
2020/12/21 03:59:47;;;;;;;59.97;32.23;;;;;;;1.25;71.23;99912.43;2232452;80;21119;-79
2020/12/21 04:02:48;;;;;;;55.70;27.77;;;;;;;1.25;70.99;99918.47;2232503;80;21389;-78
2020/12/21 04:05:49;;;;;;;58.23;29.50;;;;;;;1.27;70.95;99918.56;2232343;80;21127;-78
2020/12/21 04:08:50;;;;;;;174.83;107.23;;;;;;;1.29;71.42;99913.12;2231659;80;21267;-80
2020/12/21 04:11:51;;;;;;;62.30;33.23;;;;;;;4.61;82.31;99907.02;2231699;80;21108;-80
2020/12/21 04:14:52;;;;;;;53.73;29.50;;;;;;;5.64;66.59;99895.84;2231837;80;21126;-80
2020/12/21 04:17:53;;;;;;;50.40;29.80;;;;;;;4.53;64.62;99912.61;2231716;80;21111;-81
2020/12/21 04:20:54;;;;;;;51.23;26.07;;;;;;;3.62;64.83;99910.66;2231923;80;21091;-81
2020/12/21 04:23:56;;;;;;;49.67;27.90;;;;;;;2.98;65.61;99912.10;2232071;80;21257;-81
2020/12/21 04:26:58;;;;;;;52.77;28.50;;;;;;;2.49;66.43;99906.58;2234902;79;21292;-81
2020/12/21 04:30:00;;;;;;;51.90;27.00;;;;;;;2.17;67.44;99904.63;2229635;80;21396;-81
2020/12/21 04:33:01;;;;;;;55.57;28.53;;;;;;;1.91;67.97;99900.44;2226321;80;21134;-82
2020/12/21 04:36:04;;;;;;;53.80;28.47;;;;;;;1.77;68.47;99909.37;2225795;80;21103;-81
2020/12/21 04:39:05;;;;;;;53.13;28.73;;;;;;;1.68;69.03;99910.94;2225963;80;21122;-82
2020/12/21 04:42:06;;;;;;;56.23;28.37;;;;;;;1.59;69.24;99909.06;2225433;80;21091;-80
2020/12/21 04:45:07;;;;;;;50.30;27.33;;;;;;;1.51;69.71;99912.83;2224698;80;21127;-81
2020/12/21 04:48:08;;;;;;;55.87;30.00;;;;;;;1.43;70.59;99908.48;2224557;80;21126;-80
2020/12/21 04:51:09;;;;;;;50.03;26.47;;;;;;;1.33;70.58;99911.25;2224196;80;21119;-80
2020/12/21 04:54:10;;;;;;;54.43;27.30;;;;;;;1.23;70.75;99905.91;2222645;80;21801;-80
2020/12/21 04:57:11;;;;;;;53.00;27.13;;;;;;;1.17;70.98;99908.47;2200254;80;21566;-81
2020/12/21 05:00:15;;;;;;;59.10;30.97;;;;;;;1.17;71.53;99905.50;2222873;80;21135;-80
2020/12/21 05:06:41;;;;;;;76.93;42.77;;;;;;;4.07;81.19;99906.25;2164140;82;21118;-83
2020/12/21 05:10:00;;;;;;;112.03;66.37;;;;;;;8.71;71.83;99882.92;2154407;83;21289;-84
2020/12/21 05:13:01;;;;;;;76.17;43.60;;;;;;;11.55;62.12;99880.73;2154375;83;21253;-81
2020/12/21 05:16:02;;;;;;;57.70;32.27;;;;;;;11.16;49.55;99873.22;2154033;83;21115;-79
2020/12/21 05:19:03;;;;;;;48.47;29.10;;;;;;;11.16;49.55;99873.22;2154896;83;21572;-78
2020/12/21 05:22:04;;;;;;;52.17;29.30;;;;;;;8.15;51.46;99883.86;2154675;83;21257;-79
2020/12/21 05:25:06;;;;;;;52.97;30.83;;;;;;;6.22;54.31;99883.08;2154957;83;21291;-81
2020/12/21 05:28:07;;;;;;;55.37;30.87;;;;;;;4.87;57.03;99882.91;2156731;82;21269;-80
2020/12/21 05:31:08;;;;;;;59.40;33.07;;;;;;;3.90;59.26;99888.94;2157270;82;21087;-80
2020/12/21 05:34:09;;;;;;;57.97;30.07;;;;;;;3.27;61.28;99883.23;2158189;82;21447;-80
2020/12/21 05:37:10;;;;;;;55.27;30.10;;;;;;;2.78;62.51;99890.70;2152034;83;21234;-81
2020/12/21 05:40:12;;;;;;;64.87;34.47;;;;;;;2.40;63.82;99893.55;2167677;82;21106;-81
2020/12/21 05:43:13;;;;;;;62.93;32.53;;;;;;;2.10;64.83;99891.27;2133278;83;21261;-81
2020/12/21 05:46:14;;;;;;;59.20;30.47;;;;;;;1.91;65.95;99894.00;2166639;82;21102;-80
2020/12/21 05:49:15;;;;;;;58.27;32.93;;;;;;;1.75;67.25;99883.53;2142476;82;21280;-80
2020/12/21 05:52:16;;;;;;;70.07;34.40;;;;;;;1.60;67.21;99886.39;2161657;82;21308;-81
2020/12/21 05:55:17;;;;;;;67.43;34.33;;;;;;;1.52;67.94;99883.73;2150812;83;21234;-78
2020/12/21 05:58:18;;;;;;;68.80;35.67;;;;;;;1.47;68.38;99886.41;2159258;82;21522;-81
2020/12/21 06:01:20;;;;;;;68.50;35.53;;;;;;;1.46;68.65;99887.20;2142512;82;21590;-80
2020/12/21 06:04:23;;;;;;;72.67;35.43;;;;;;;1.44;69.15;99893.53;2171617;82;21244;-80
2020/12/21 06:07:29;;;;;;;67.50;33.50;;;;;;;5.11;71.92;99882.43;2144476;82;21127;-79
2020/12/21 06:10:51;;;;;;;55.50;30.97;;;;;;;6.77;64.27;99878.14;2173474;82;21620;-82
2020/12/21 06:13:52;;;;;;;65.53;32.87;;;;;;;5.26;61.29;99880.16;2152943;82;21248;-80
2020/12/21 06:16:54;;;;;;;70.60;37.23;;;;;;;4.18;62.22;99889.63;2161646;82;21253;-82
2020/12/21 06:19:56;;;;;;;68.57;34.70;;;;;;;3.44;63.44;99892.81;2151523;83;21246;-82
2020/12/21 06:22:58;;;;;;;61.70;31.27;;;;;;;2.93;64.67;99892.89;2164167;82;21154;-81
2020/12/21 06:25:59;;;;;;;63.83;32.93;;;;;;;2.55;65.72;99898.33;2158637;82;21118;-80
2020/12/21 06:29:00;;;;;;;63.37;32.53;;;;;;;2.22;66.48;99898.06;2166723;82;22017;-79
2020/12/21 06:32:01;;;;;;;66.27;34.53;;;;;;;2.00;67.35;99903.98;2146011;83;21659;-81
2020/12/21 06:35:02;;;;;;;72.10;37.67;;;;;;;1.85;67.96;99907.77;2162848;82;21138;-80
2020/12/21 06:38:04;;;;;;;66.43;35.77;;;;;;;1.76;68.50;99915.31;2150749;82;21881;-80
2020/12/21 06:41:05;;;;;;;65.13;33.73;;;;;;;1.69;69.03;99917.86;2161990;82;21246;-81
2020/12/21 06:44:06;;;;;;;68.33;34.57;;;;;;;1.63;69.50;99921.73;2163460;82;21262;-80
2020/12/21 06:47:07;;;;;;;72.97;35.60;;;;;;;1.56;69.80;99923.91;2158735;82;21304;-81
2020/12/21 06:50:08;;;;;;;65.73;34.27;;;;;;;1.48;69.91;99921.64;2168414;82;21281;-81
2020/12/21 06:53:10;;;;;;;62.40;31.50;;;;;;;1.41;70.41;99912.64;2159223;82;21249;-80
2020/12/21 06:56:11;;;;;;;63.73;33.57;;;;;;;1.38;71.29;99920.16;2172791;82;21289;-81
2020/12/21 06:59:12;;;;;;;65.47;34.43;;;;;;;1.34;71.24;99923.72;2151628;82;21293;-80
2020/12/21 07:02:15;;;;;;;70.47;36.70;;;;;;;1.33;71.43;99925.79;2162800;82;21256;-81
2020/12/21 07:05:16;;;;;;;70.90;36.27;;;;;;;1.30;71.74;99926.48;2159649;82;21249;-81
2020/12/21 07:08:17;;;;;;;69.47;35.70;;;;;;;1.28;71.82;99926.78;2168381;82;21308;-81
2020/12/21 07:11:18;;;;;;;71.00;35.63;;;;;;;1.28;71.94;99928.06;2160943;82;21501;-81
2020/12/21 07:14:19;;;;;;;70.43;34.27;;;;;;;1.31;72.37;99925.70;2170388;82;21555;-80
2020/12/21 07:17:20;;;;;;;60.27;30.70;;;;;;;1.37;72.32;99927.77;2148034;83;21127;-80
2020/12/21 07:20:22;;;;;;;66.70;35.53;;;;;;;1.36;72.63;99923.02;2160746;82;21862;-81
2020/12/21 07:23:23;;;;;;;67.13;35.47;;;;;;;1.35;72.32;99921.64;2150163;83;21901;-80
2020/12/21 07:26:24;;;;;;;72.63;35.73;;;;;;;1.37;72.66;99923.52;2161815;82;21107;-80
2020/12/21 07:29:25;;;;;;;72.47;36.53;;;;;;;1.40;72.65;99934.01;2168176;82;21312;-80
2020/12/21 07:32:26;;;;;;;62.17;33.20;;;;;;;1.42;72.61;99939.25;2150201;83;21271;-81
2020/12/21 07:35:28;;;;;;;70.13;35.97;;;;;;;1.47;72.73;99943.91;2163815;82;21527;-81
2020/12/21 07:38:30;;;;;;;78.27;39.30;;;;;;;1.50;72.50;99954.80;2162240;82;21233;-81
2020/12/21 07:41:32;;;;;;;74.33;36.43;;;;;;;1.55;72.63;99948.27;2174549;82;21316;-82
2020/12/21 07:44:33;;;;;;;68.33;33.97;;;;;;;1.58;72.63;99949.75;2154548;82;21270;-80
2020/12/21 07:47:34;;;;;;;73.87;36.37;;;;;;;1.54;73.11;99943.91;2161392;82;21134;-79
2020/12/21 07:50:36;;;;;;;70.77;35.57;;;;;;;1.53;72.83;99948.55;2150595;83;21140;-79
2020/12/21 07:53:37;;;;;;;71.33;34.37;;;;;;;1.54;72.78;99946.48;2159597;82;21285;-80
2020/12/21 07:56:38;;;;;;;69.17;35.40;;;;;;;1.59;73.03;99943.41;2150498;83;21147;-80
2020/12/21 07:59:39;;;;;;;73.03;34.70;;;;;;;1.65;73.02;99947.17;2161163;82;21137;-80
2020/12/21 08:02:40;;;;;;;68.33;36.13;;;;;;;1.69;72.86;99938.85;2132550;82;21259;-78
2020/12/21 08:05:42;;;;;;;75.03;38.90;;;;;;;1.71;72.77;99935.58;2163647;82;21146;-79
2020/12/21 08:08:43;;;;;;;77.60;39.10;;;;;;;1.77;72.74;99937.30;2127140;83;21296;-80
2020/12/21 08:11:44;;;;;;;65.40;34.33;;;;;;;1.86;72.69;99935.70;2163988;82;21134;-78
2020/12/21 08:14:45;;;;;;;68.70;34.30;;;;;;;1.91;72.74;99933.91;2127075;83;21241;-79
2020/12/21 08:17:47;;;;;;;68.27;35.10;;;;;;;1.97;72.60;99932.52;2160750;82;21296;-78
2020/12/21 08:20:48;;;;;;;63.87;33.37;;;;;;;2.02;72.59;99932.00;2149427;83;21289;-79
2020/12/21 08:23:49;;;;;;;63.77;32.67;;;;;;;2.03;72.44;99932.89;2161093;82;21535;-80
2020/12/21 08:26:54;;;;;;;60.93;32.60;;;;;;;2.05;72.52;99936.45;2151217;83;21254;-78
2020/12/21 08:29:55;;;;;;;60.15;32.70;;;;;;;2.04;72.65;99938.54;2164253;82;21186;-78
2020/12/21 08:32:58;;;;;;;62.73;32.77;;;;;;;1.97;72.61;99942.81;2129342;83;21245;-79
2020/12/21 08:35:59;;;;;;;66.47;34.70;;;;;;;1.95;72.67;99949.55;2164075;82;22179;-80
2020/12/21 08:39:00;;;;;;;73.97;34.97;;;;;;;1.96;72.64;99942.32;2139349;82;21281;-79
2020/12/21 08:42:04;;;;;;;65.53;34.67;;;;;;;1.97;72.62;99946.28;2168102;82;21317;-79
2020/12/21 08:45:04;;;;;;;57.77;28.07;;;;;;;1.94;72.58;99943.91;2141690;82;21276;-80
2020/12/21 08:48:05;;;;;;;61.10;34.60;;;;;;;2.03;77.62;99946.66;2174559;82;21320;-77
2020/12/21 08:51:06;;;;;;;62.17;31.37;;;;;;;4.09;74.76;99938.22;2161957;82;21270;-80
2020/12/21 08:54:07;;;;;;;61.83;34.90;;;;;;;3.83;70.82;99940.26;2170401;82;21606;-80
2020/12/21 08:57:08;;;;;;;70.23;36.37;;;;;;;3.34;70.31;99935.28;2139069;82;21276;-80
2020/12/21 09:00:09;;;;;;;62.10;33.13;;;;;;;3.10;70.49;99939.91;2162956;82;21277;-79
2020/12/21 09:03:11;;;;;;;70.47;37.37;;;;;;;2.97;70.58;99933.54;2141009;82;21277;-78
2020/12/21 09:06:11;;;;;;;74.60;37.23;;;;;;;2.90;70.76;99935.66;2169400;82;21115;-79
2020/12/21 09:09:13;;;;;;;66.67;35.80;;;;;;;2.94;70.86;99937.63;2129885;83;21332;-79
2020/12/21 09:12:14;;;;;;;62.77;35.10;;;;;;;2.92;70.83;99934.95;2161952;82;21543;-79
2020/12/21 09:15:15;;;;;;;66.30;37.60;;;;;;;2.88;70.83;99933.89;2140330;82;21261;-79
2020/12/21 09:18:17;;;;;;;74.80;37.33;;;;;;;2.91;70.99;99929.31;2172653;82;21130;-78
2020/12/21 09:21:18;;;;;;;71.20;36.53;;;;;;;2.87;71.07;99925.66;2151670;82;21269;-78
2020/12/21 09:24:19;;;;;;;61.20;32.40;;;;;;;2.88;71.25;99929.12;2162321;82;21448;-79
2020/12/21 09:27:20;;;;;;;69.60;37.77;;;;;;;2.94;71.34;99927.31;2131408;83;21278;-79
2020/12/21 09:30:22;;;;;;;65.73;37.50;;;;;;;2.98;71.25;99922.42;2159566;82;21642;-79
2020/12/21 09:33:23;;;;;;;59.53;35.97;;;;;;;3.03;71.22;99919.71;2159711;82;21285;-78
2020/12/21 09:36:25;;;;;;;64.63;38.13;;;;;;;3.08;71.29;99926.03;2160633;82;21269;-79
2020/12/21 09:39:26;;;;;;;69.47;37.87;;;;;;;3.12;71.19;99918.95;2160205;82;21577;-78
2020/12/21 09:42:27;;;;;;;68.70;37.67;;;;;;;3.07;71.08;99914.33;2159856;82;21292;-78
2020/12/21 09:45:28;;;;;;;68.23;37.20;;;;;;;3.01;71.18;99907.52;2159526;82;21292;-79
2020/12/21 09:48:29;;;;;;;64.30;36.83;;;;;;;2.97;71.29;99906.45;2158866;82;21320;-78
2020/12/21 09:54:43;;;;;;;66.47;38.27;;;;;;;3.06;71.70;99906.10;2258264;79;22329;-79
2020/12/21 09:57:44;;;;;;;63.77;35.83;;;;;;;3.04;71.61;99908.59;2225485;80;21161;-79
2020/12/21 10:00:45;;;;;;;66.13;37.37;;;;;;;3.05;71.68;99913.35;2225402;80;21862;-79
2020/12/21 10:03:46;;;;;;;67.20;37.10;;;;;;;3.05;71.73;99909.08;2225356;80;21142;-78
2020/12/21 10:06:47;;;;;;;67.63;37.13;;;;;;;3.10;71.72;99906.77;2225509;80;21487;-80
2020/12/21 10:09:48;;;;;;;65.73;36.93;;;;;;;3.12;71.81;99903.88;2225967;80;21231;-79
2020/12/21 10:12:49;;;;;;;60.83;33.80;;;;;;;3.19;71.87;99904.31;2225496;80;21268;-81
2020/12/21 10:15:50;;;;;;;73.30;38.50;;;;;;;3.16;71.62;99900.27;2225470;80;21863;-80
2020/12/21 10:18:51;;;;;;;67.93;36.90;;;;;;;3.16;71.63;99901.97;2225878;80;21180;-78
2020/12/21 10:21:52;;;;;;;66.47;38.23;;;;;;;3.19;71.67;99896.58;2225709;80;21228;-79
2020/12/21 10:24:53;;;;;;;57.87;33.07;;;;;;;3.23;71.79;99895.06;2225249;80;21248;-78
2020/12/21 10:27:55;;;;;;;75.53;40.43;;;;;;;3.20;71.79;99891.02;2224939;80;21252;-79
2020/12/21 10:30:56;;;;;;;74.43;39.37;;;;;;;3.15;71.94;99889.86;2225054;80;21244;-77
2020/12/21 10:33:57;;;;;;;82.80;42.97;;;;;;;3.07;71.86;99879.50;2225177;80;21900;-79
2020/12/21 10:36:58;;;;;;;82.63;45.00;;;;;;;3.08;71.73;99874.84;2225024;80;21240;-79
2020/12/21 10:39:59;;;;;;;87.03;46.53;;;;;;;3.07;71.71;99879.11;2225627;80;21134;-78
2020/12/21 10:43:00;;;;;;;83.27;46.33;;;;;;;3.17;72.04;99876.25;2224589;80;21236;-79
2020/12/21 10:46:01;;;;;;;85.97;44.97;;;;;;;3.24;71.78;99874.02;2224672;80;21272;-79
2020/12/21 10:49:02;;;;;;;80.13;44.17;;;;;;;3.35;71.79;99871.24;2224851;80;21229;-79
2020/12/21 10:52:03;;;;;;;77.83;42.63;;;;;;;3.32;71.56;99880.50;2224393;80;21280;-79
2020/12/21 10:55:05;;;;;;;83.23;41.77;;;;;;;3.31;71.59;99876.14;2208109;81;21248;-78
2020/12/21 10:58:06;;;;;;;78.57;42.30;;;;;;;3.34;71.52;99872.45;2208598;81;21099;-78
2020/12/21 11:01:07;;;;;;;75.37;42.37;;;;;;;3.38;71.61;99876.58;2207858;81;21257;-78
2020/12/21 11:04:08;;;;;;;80.47;41.20;;;;;;;3.49;71.36;99881.98;2206908;81;21142;-79
2020/12/21 11:07:09;;;;;;;85.07;43.73;;;;;;;3.49;71.33;99871.66;2207726;81;21464;-78
2020/12/21 11:10:10;;;;;;;88.17;45.13;;;;;;;3.50;71.47;99868.67;2206895;81;21142;-78
2020/12/21 11:13:12;;;;;;;79.43;42.30;;;;;;;3.56;71.34;99865.14;2207150;81;21405;-78
2020/12/21 11:16:12;;;;;;;80.50;42.00;;;;;;;3.54;71.37;99861.58;2207543;81;21731;-79
2020/12/21 11:19:14;;;;;;;82.43;45.67;;;;;;;3.53;71.27;99856.33;2207460;81;21385;-79
2020/12/21 11:22:15;;;;;;;86.50;45.43;;;;;;;3.56;71.39;99849.64;2207307;81;21103;-79
2020/12/21 11:25:16;;;;;;;86.43;44.47;;;;;;;3.59;71.33;99847.23;2208084;81;21102;-80
2020/12/21 11:28:17;;;;;;;82.13;44.33;;;;;;;3.67;71.47;99848.95;2207346;81;21122;-79
2020/12/21 11:31:18;;;;;;;96.07;43.63;;;;;;;3.72;71.46;99848.39;2207263;81;21812;-79
2020/12/21 11:34:19;;;;;;;81.93;43.40;;;;;;;3.68;71.49;99845.16;2207011;81;21319;-77
2020/12/21 11:37:20;;;;;;;78.50;40.67;;;;;;;3.59;71.48;99855.38;2207363;81;21122;-79
2020/12/21 11:40:21;;;;;;;94.53;42.20;;;;;;;3.61;71.82;99857.24;2207226;81;21099;-77
2020/12/21 11:43:22;;;;;;;90.10;41.33;;;;;;;3.66;71.75;99850.64;2206582;81;21721;-78
2020/12/21 11:46:23;;;;;;;81.13;42.97;;;;;;;3.70;71.85;99843.55;2206767;81;21296;-80
2020/12/21 11:49:25;;;;;;;78.83;41.00;;;;;;;3.72;71.81;99841.05;2207810;81;21082;-78
2020/12/21 11:52:26;;;;;;;79.43;43.07;;;;;;;3.77;71.88;99837.02;2207759;80;21183;-79
2020/12/21 11:55:27;;;;;;;76.07;42.37;;;;;;;3.81;71.84;99847.59;2208032;81;21126;-79
2020/12/21 11:58:28;;;;;;;69.07;37.63;;;;;;;3.84;71.74;99846.47;2207728;81;21265;-79
2020/12/21 12:01:29;;;;;;;108.20;40.53;;;;;;;3.93;71.90;99846.48;2207347;81;21592;-80
2020/12/21 12:04:30;;;;;;;67.70;38.37;;;;;;;3.95;71.72;99841.89;2207665;81;21269;-82
2020/12/21 12:07:31;;;;;;;67.90;39.27;;;;;;;3.96;71.55;99843.66;2207841;81;21138;-79
2020/12/21 12:10:32;;;;;;;72.20;42.10;;;;;;;3.96;71.60;99844.06;2207438;81;21622;-79
2020/12/21 12:13:33;;;;;;;76.87;43.43;;;;;;;3.94;71.57;99840.11;2206252;81;21304;-79
2020/12/21 12:16:35;;;;;;;68.87;41.93;;;;;;;3.93;71.54;99839.63;2207009;81;21130;-79
2020/12/21 12:19:36;;;;;;;66.57;36.13;;;;;;;3.94;71.64;99841.41;2207307;81;21134;-79
2020/12/21 12:22:37;;;;;;;71.33;39.80;;;;;;;4.09;77.86;99833.17;2207202;81;21264;-80
2020/12/21 12:25:38;;;;;;;71.83;40.93;;;;;;;4.83;72.41;99836.99;2207315;81;21253;-80
2020/12/21 12:28:39;;;;;;;63.97;38.73;;;;;;;4.69;70.72;99839.77;2206347;81;21587;-79
2020/12/21 12:31:40;;;;;;;88.70;43.93;;;;;;;4.41;70.42;99845.23;2206384;81;21296;-79
2020/12/21 12:34:42;;;;;;;70.17;41.10;;;;;;;4.19;70.84;99852.64;2206044;81;21344;-80
2020/12/21 12:37:43;;;;;;;77.90;43.23;;;;;;;4.02;71.03;99851.73;2206560;81;21281;-77
2020/12/21 12:40:44;;;;;;;183.43;52.03;;;;;;;3.91;71.30;99850.68;2206920;81;21122;-80
2020/12/21 12:43:45;;;;;;;77.60;43.00;;;;;;;3.87;71.58;99853.50;2207178;81;21265;-80
2020/12/21 12:46:46;;;;;;;68.60;38.97;;;;;;;3.86;71.58;99854.71;2206433;81;21304;-80
2020/12/21 12:49:48;;;;;;;75.23;42.83;;;;;;;3.82;71.74;99849.37;2207505;81;21248;-79
2020/12/21 12:52:57;;;;;;;72.23;40.30;;;;;;;3.81;71.85;99849.30;2207784;80;21201;-80
2020/12/21 12:55:58;;;;;;;73.20;41.37;;;;;;;3.79;71.98;99845.34;2214727;80;21122;-79
2020/12/21 12:58:59;;;;;;;72.10;40.33;;;;;;;3.75;71.98;99852.44;2213931;80;21945;-79
2020/12/21 13:02:00;;;;;;;82.27;43.50;;;;;;;3.72;72.08;99858.72;2212767;80;21265;-80
2020/12/21 13:05:01;;;;;;;77.70;42.63;;;;;;;3.66;72.17;99853.22;2212287;80;21597;-80
2020/12/21 13:08:03;;;;;;;147.07;48.33;;;;;;;3.63;72.33;99852.16;2211219;80;21280;-78
2020/12/21 13:11:04;;;;;;;90.90;44.07;;;;;;;3.66;72.64;99855.80;2211789;80;21264;-82
2020/12/21 13:14:05;;;;;;;76.00;42.00;;;;;;;3.69;72.57;99850.81;2212041;80;21693;-76
2020/12/21 13:17:06;;;;;;;102.57;44.37;;;;;;;3.70;72.43;99849.11;2212812;80;21256;-78
2020/12/21 13:20:07;;;;;;;79.67;43.97;;;;;;;3.64;72.39;99853.53;2212561;80;21252;-77
2020/12/21 13:23:08;;;;;;;79.93;43.97;;;;;;;3.63;72.60;99845.30;2213502;80;21455;-77
2020/12/21 13:26:09;;;;;;;78.03;41.80;;;;;;;3.59;72.67;99843.36;2213586;80;21276;-79
2020/12/21 13:29:10;;;;;;;78.60;43.13;;;;;;;3.57;72.69;99836.34;2213375;80;21153;-77
2020/12/21 13:32:11;;;;;;;81.27;42.37;;;;;;;3.53;72.74;99831.41;2213774;80;21303;-77
2020/12/21 13:35:12;;;;;;;76.77;42.23;;;;;;;3.47;72.86;99836.23;2213571;80;21129;-77
2020/12/21 13:38:15;;;;;;;96.20;47.50;;;;;;;3.41;73.11;99831.98;2214093;80;21196;-78
2020/12/21 13:41:16;;;;;;;86.07;46.77;;;;;;;3.41;73.27;99838.44;2213481;80;21601;-77
2020/12/21 13:44:19;;;;;;;85.60;44.87;;;;;;;3.43;73.27;99845.86;2213484;80;21288;-78
2020/12/21 13:47:21;;;;;;;84.30;45.77;;;;;;;3.44;73.35;99839.90;2214159;80;21150;-79
2020/12/21 13:50:22;;;;;;;97.00;47.70;;;;;;;3.44;73.25;99839.90;2214175;80;21153;-77
2020/12/21 13:53:24;;;;;;;88.77;47.17;;;;;;;3.46;73.24;99846.92;2214667;80;21609;-78
2020/12/21 13:56:25;;;;;;;85.80;44.43;;;;;;;3.43;73.21;99839.02;2214152;80;21664;-77
2020/12/21 13:59:26;;;;;;;90.90;48.87;;;;;;;3.39;73.37;99841.33;2214521;80;21252;-77
2020/12/21 14:02:27;;;;;;;94.07;49.73;;;;;;;3.31;73.43;99850.34;2214008;80;21118;-77
2020/12/21 14:05:28;;;;;;;91.20;44.13;;;;;;;3.25;73.50;99847.02;2212484;80;21264;-77
2020/12/21 14:08:29;;;;;;;96.03;48.10;;;;;;;3.22;73.70;99844.66;2203206;80;21970;-77